createdAt,value
2023-05-04T00:01:21.199Z,5.71
2023-05-04T00:04:21.235Z,5.7
2023-05-04T00:07:21.212Z,5.7
2023-05-04T00:10:21.227Z,5.65
2023-05-04T00:13:21.224Z,5.64
2023-05-04T00:16:21.259Z,5.62
2023-05-04T00:19:21.236Z,5.64
2023-05-04T00:22:21.239Z,5.64
2023-05-04T00:25:21.261Z,5.6
2023-05-04T00:28:21.245Z,5.59
2023-05-04T00:31:21.250Z,5.59
2023-05-04T00:34:21.243Z,5.59
2023-05-04T00:37:21.256Z,5.59
2023-05-04T00:40:21.266Z,5.62
2023-05-04T00:43:21.279Z,5.6
2023-05-04T00:46:21.271Z,5.6
2023-05-04T00:49:21.301Z,5.6
2023-05-04T00:52:21.264Z,5.55
2023-05-04T00:55:21.290Z,5.55
2023-05-04T00:58:21.280Z,5.57
2023-05-04T01:01:21.313Z,5.57
2023-05-04T01:04:21.284Z,5.57
2023-05-04T01:07:21.331Z,5.55
2023-05-04T01:10:21.299Z,5.55
2023-05-04T01:13:21.324Z,5.51
2023-05-04T01:16:21.315Z,5.52
2023-05-04T01:19:21.301Z,5.54
2023-05-04T01:22:21.308Z,5.52
2023-05-04T01:25:21.319Z,5.47
2023-05-04T01:28:21.325Z,5.51
2023-05-04T01:31:21.346Z,5.5
2023-05-04T01:34:21.324Z,5.47
2023-05-04T01:37:21.329Z,5.46
2023-05-04T01:40:21.356Z,5.46
2023-05-04T01:43:21.353Z,5.46
2023-05-04T01:46:21.390Z,5.45
2023-05-04T01:49:21.353Z,5.44
2023-05-04T01:52:21.352Z,5.4
2023-05-04T01:55:21.367Z,5.37
2023-05-04T01:58:21.359Z,5.38
2023-05-04T02:01:21.390Z,5.38
2023-05-04T02:04:21.384Z,5.38
2023-05-04T02:07:21.378Z,5.38
2023-05-04T02:10:21.406Z,5.41
2023-05-04T02:13:21.391Z,5.38
2023-05-04T02:16:21.465Z,5.38
2023-05-04T02:19:21.398Z,5.38
2023-05-04T02:22:21.394Z,5.37
2023-05-04T02:25:21.412Z,5.38
2023-05-04T02:28:21.410Z,5.35
2023-05-04T02:31:21.441Z,5.32
2023-05-04T02:34:21.413Z,5.29
2023-05-04T02:37:21.424Z,5.31
2023-05-04T02:40:21.426Z,5.31
2023-05-04T02:43:21.425Z,5.28
2023-05-04T02:46:21.498Z,5.25
2023-05-04T02:49:21.447Z,5.23
2023-05-04T02:52:21.455Z,5.21
2023-05-04T02:55:21.469Z,5.19
2023-05-04T02:58:21.457Z,5.16
2023-05-04T03:01:21.498Z,5.13
2023-05-04T03:04:21.555Z,5.16
2023-05-04T03:07:21.480Z,5.18
2023-05-04T03:10:21.496Z,5.15
2023-05-04T03:13:21.481Z,5.15
2023-05-04T03:16:21.518Z,5.16
2023-05-04T03:19:21.493Z,5.22
2023-05-04T03:22:21.495Z,5.22
2023-05-04T03:25:21.541Z,5.19
2023-05-04T03:28:21.506Z,5.19
2023-05-04T03:31:21.516Z,5.2
2023-05-04T03:34:21.736Z,5.22
2023-05-04T03:37:21.517Z,5.18
2023-05-04T03:40:21.532Z,5.17
2023-05-04T03:43:21.525Z,5.22
2023-05-04T03:46:21.543Z,5.19
2023-05-04T03:49:21.548Z,5.22
2023-05-04T03:52:21.548Z,5.21
2023-05-04T03:55:21.580Z,5.21
2023-05-04T03:58:21.553Z,5.21
2023-05-04T04:01:21.545Z,5.26
2023-05-04T04:04:21.659Z,5.29
2023-05-04T04:07:21.562Z,5.33
2023-05-04T04:10:21.579Z,5.36
2023-05-04T04:13:21.600Z,5.38
2023-05-04T04:16:21.699Z,5.41
2023-05-04T04:19:21.589Z,5.47
2023-05-04T04:22:21.596Z,5.49
2023-05-04T04:25:21.630Z,5.53
2023-05-04T04:28:21.655Z,5.54
2023-05-04T04:31:21.697Z,5.59
2023-05-04T04:34:21.681Z,5.6
2023-05-04T04:37:21.596Z,5.61
2023-05-04T04:40:21.672Z,5.62
2023-05-04T04:43:21.596Z,5.63
2023-05-04T04:46:21.653Z,5.63
2023-05-04T04:49:21.607Z,5.63
2023-05-04T04:52:21.615Z,5.66
2023-05-04T04:55:21.834Z,5.67
2023-05-04T04:58:21.628Z,5.68
2023-05-04T05:01:21.652Z,5.7
2023-05-04T05:04:21.671Z,5.71
2023-05-04T05:07:21.635Z,5.71
2023-05-04T05:10:21.645Z,5.73
2023-05-04T05:13:21.666Z,5.75
2023-05-04T05:16:21.663Z,5.77
2023-05-04T05:19:21.652Z,5.78
2023-05-04T05:22:21.654Z,5.8
2023-05-04T05:25:21.671Z,5.85
2023-05-04T05:28:21.680Z,5.86
2023-05-04T05:31:21.695Z,5.87
2023-05-04T05:34:21.677Z,5.89
2023-05-04T05:37:21.677Z,5.95
2023-05-04T05:40:21.689Z,5.96
2023-05-04T05:43:21.702Z,6.02
2023-05-04T05:46:21.714Z,6.06
2023-05-04T05:49:21.701Z,6.18
2023-05-04T05:52:21.710Z,6.21
2023-05-04T05:55:21.723Z,6.25
2023-05-04T05:58:21.712Z,6.29
2023-05-04T06:01:21.718Z,6.31
2023-05-04T06:04:21.737Z,6.36
2023-05-04T06:07:21.739Z,6.43
2023-05-04T06:10:21.735Z,6.5
2023-05-04T06:13:21.732Z,6.55
2023-05-04T06:16:21.771Z,6.55
2023-05-04T06:19:21.737Z,6.6
2023-05-04T06:22:21.757Z,6.61
2023-05-04T06:25:21.773Z,6.67
2023-05-04T06:28:21.771Z,6.7
2023-05-04T06:31:21.795Z,6.71
2023-05-04T06:34:21.771Z,6.72
2023-05-04T06:37:21.777Z,6.76
2023-05-04T06:40:21.790Z,6.82
2023-05-04T06:43:21.782Z,6.88
2023-05-04T06:46:21.793Z,6.93
2023-05-04T06:49:21.796Z,6.91
2023-05-04T06:52:21.797Z,6.92
2023-05-04T06:55:21.820Z,7.02
2023-05-04T06:58:21.825Z,7
2023-05-04T07:01:21.894Z,7.07
2023-05-04T07:04:21.802Z,7.12
2023-05-04T07:07:21.815Z,7.18
2023-05-04T07:10:21.837Z,7.18
2023-05-04T07:13:21.817Z,7.05
2023-05-04T07:16:21.851Z,7.09
2023-05-04T07:19:21.822Z,7.15
2023-05-04T07:22:21.832Z,7.22
2023-05-04T07:25:21.832Z,7.17
2023-05-04T07:28:21.842Z,7.23
2023-05-04T07:31:21.838Z,7.34
2023-05-04T07:34:27.594Z,7.34
2023-05-04T07:37:21.841Z,7.38
2023-05-04T07:40:21.854Z,7.41
2023-05-04T07:43:21.850Z,7.51
2023-05-04T07:46:21.895Z,7.48
2023-05-04T07:49:21.858Z,7.6
2023-05-04T07:52:21.853Z,7.65
2023-05-04T07:55:21.878Z,7.55
2023-05-04T07:58:21.870Z,7.59
2023-05-04T08:01:21.874Z,7.6
2023-05-04T08:04:21.873Z,7.48
2023-05-04T08:07:21.876Z,7.48
2023-05-04T08:10:21.902Z,7.47
2023-05-04T08:13:21.882Z,7.45
2023-05-04T08:16:21.897Z,7.36
2023-05-04T08:19:21.892Z,7.44
2023-05-04T08:22:21.903Z,7.41
2023-05-04T08:25:21.913Z,7.31
2023-05-04T08:28:21.919Z,7.29
2023-05-04T08:31:21.922Z,7.32
2023-05-04T08:34:21.924Z,7.43
2023-05-04T08:37:21.921Z,7.31
2023-05-04T08:40:21.940Z,7.43
2023-05-04T08:43:21.931Z,7.58
2023-05-04T08:46:21.963Z,7.5
2023-05-04T08:49:21.952Z,7.56
2023-05-04T08:52:21.939Z,7.18
2023-05-04T08:55:21.948Z,7.16
2023-05-04T08:58:21.943Z,7.3
2023-05-04T09:01:22.126Z,7.42
2023-05-04T09:04:21.989Z,7.22
2023-05-04T09:07:21.999Z,7.31
2023-05-04T09:10:22.045Z,7.27
2023-05-04T09:13:21.959Z,7.45
2023-05-04T09:16:22.002Z,7.38
2023-05-04T09:19:21.969Z,7.25
2023-05-04T09:22:21.962Z,7.12
2023-05-04T09:25:21.982Z,7.13
2023-05-04T09:28:22.002Z,6.88
2023-05-04T09:31:21.993Z,7.02
2023-05-04T09:34:21.998Z,7.1
2023-05-04T09:37:22.002Z,7.05
2023-05-04T09:40:22.007Z,6.86
2023-05-04T09:43:22.025Z,6.81
2023-05-04T09:46:22.055Z,6.71
2023-05-04T09:49:22.056Z,6.71
2023-05-04T09:52:22.065Z,6.83
2023-05-04T09:55:22.089Z,6.95
2023-05-04T09:58:22.154Z,6.83
2023-05-04T10:01:22.114Z,6.84
2023-05-04T10:04:22.121Z,6.82
2023-05-04T10:07:22.110Z,6.77
2023-05-04T10:10:22.127Z,6.67
2023-05-04T10:13:22.113Z,6.73
2023-05-04T10:16:22.172Z,6.75
2023-05-04T10:19:22.127Z,6.75
2023-05-04T10:22:22.139Z,6.75
2023-05-04T10:25:22.143Z,6.78
2023-05-04T10:28:22.133Z,6.81
2023-05-04T10:31:22.150Z,6.82
2023-05-04T10:34:22.142Z,6.64
2023-05-04T10:37:22.146Z,6.56
2023-05-04T10:40:22.166Z,6.51
2023-05-04T10:43:22.153Z,6.56
2023-05-04T10:46:22.163Z,6.7
2023-05-04T10:49:22.165Z,6.67
2023-05-04T10:52:22.157Z,6.5
2023-05-04T10:55:22.216Z,6.54
2023-05-04T10:58:22.193Z,6.57
2023-05-04T11:01:22.235Z,6.53
2023-05-04T11:04:22.193Z,6.55
2023-05-04T11:07:22.187Z,6.57
2023-05-04T11:10:22.212Z,6.64
2023-05-04T11:13:22.308Z,6.65
2023-05-04T11:16:22.281Z,6.54
2023-05-04T11:19:22.209Z,6.7
2023-05-04T11:22:22.225Z,6.72
2023-05-04T11:25:22.235Z,6.48
2023-05-04T11:28:22.232Z,6.48
2023-05-04T11:31:22.278Z,6.55
2023-05-04T11:34:22.238Z,6.71
2023-05-04T11:37:22.242Z,6.84
2023-05-04T11:40:22.253Z,6.8
2023-05-04T11:43:22.250Z,6.53
2023-05-04T11:46:22.316Z,6.65
2023-05-04T11:49:22.256Z,6.66
2023-05-04T11:52:22.282Z,6.66
2023-05-04T11:55:22.287Z,6.7
2023-05-04T11:58:22.283Z,6.67
2023-05-04T12:01:22.308Z,6.76
2023-05-04T12:04:22.321Z,6.73
2023-05-04T12:07:22.300Z,6.74
2023-05-04T12:10:22.306Z,7
2023-05-04T12:13:22.329Z,6.86
2023-05-04T12:16:22.333Z,6.84
2023-05-04T12:19:22.319Z,6.93
2023-05-04T12:22:22.328Z,6.82
2023-05-04T12:25:22.337Z,6.77
2023-05-04T12:28:22.335Z,6.6
2023-05-04T12:31:24.393Z,6.71
2023-05-04T12:34:22.342Z,6.63
2023-05-04T12:37:23.863Z,6.68
2023-05-04T12:43:22.356Z,6.64
2023-05-04T12:46:22.384Z,6.69
2023-05-04T12:49:24.119Z,6.71
2023-05-04T12:52:22.364Z,6.9
2023-05-04T12:55:24.738Z,6.76
2023-05-04T12:58:22.367Z,6.8
2023-05-04T13:01:22.393Z,6.89
2023-05-04T13:04:22.382Z,6.92
2023-05-04T13:07:22.378Z,7.06
2023-05-04T13:10:22.407Z,6.73
2023-05-04T13:13:22.398Z,6.56
2023-05-04T13:16:22.433Z,6.47
2023-05-04T13:19:22.403Z,6.55
2023-05-04T13:22:22.409Z,6.66
2023-05-04T13:25:22.420Z,6.87
2023-05-04T13:28:22.416Z,6.87
2023-05-04T13:31:22.445Z,6.94
2023-05-04T13:34:22.421Z,6.7
2023-05-04T13:37:22.451Z,6.64
2023-05-04T13:40:22.448Z,6.72
2023-05-04T13:43:22.449Z,6.75
2023-05-04T13:46:22.474Z,6.73
2023-05-04T13:49:22.449Z,6.82
2023-05-04T13:52:22.464Z,6.87
2023-05-04T13:55:22.504Z,7.03
2023-05-04T13:58:22.466Z,7.17
2023-05-04T14:01:22.499Z,7.15
2023-05-04T14:04:22.496Z,6.75
2023-05-04T14:07:22.515Z,6.66
2023-05-04T14:10:22.569Z,6.92
2023-05-04T14:13:22.573Z,6.96
2023-05-04T14:16:22.605Z,6.59
2023-05-04T14:19:22.574Z,6.61
2023-05-04T14:22:22.600Z,6.88
2023-05-04T14:25:22.602Z,6.92
2023-05-04T14:28:22.578Z,6.53
2023-05-04T14:31:22.646Z,6.55
2023-05-04T14:34:22.659Z,6.41
2023-05-04T14:37:22.573Z,6.37
2023-05-04T14:40:22.608Z,6.4
2023-05-04T14:43:22.583Z,6.64
2023-05-04T14:46:22.595Z,6.92
2023-05-04T14:49:35.394Z,7.15
2023-05-04T14:52:22.589Z,7.08
2023-05-04T14:55:22.609Z,6.83
2023-05-04T14:58:22.595Z,6.58
2023-05-04T15:01:22.636Z,6.46
2023-05-04T15:04:22.619Z,6.44
2023-05-04T15:07:22.661Z,6.4
2023-05-04T15:10:22.616Z,6.47
2023-05-04T15:13:22.606Z,6.51
2023-05-04T15:16:22.678Z,6.39
2023-05-04T15:19:22.611Z,6.42
2023-05-04T15:22:22.605Z,6.56
2023-05-04T15:25:22.618Z,6.81
2023-05-04T15:28:22.680Z,6.95
2023-05-04T15:31:22.649Z,6.96
2023-05-04T15:34:22.596Z,6.81
2023-05-04T15:37:22.603Z,6.68
2023-05-04T15:40:22.613Z,6.86
2023-05-04T15:43:22.607Z,6.75
2023-05-04T15:46:22.681Z,6.8
2023-05-04T15:49:22.606Z,6.8
2023-05-04T15:52:22.617Z,6.76
2023-05-04T15:55:26.165Z,6.79
2023-05-04T15:58:22.612Z,6.85
2023-05-04T16:01:22.694Z,6.98
2023-05-04T16:04:22.613Z,6.9
2023-05-04T16:07:22.667Z,6.9
2023-05-04T16:10:22.646Z,6.81
2023-05-04T16:13:22.880Z,6.78
2023-05-04T16:16:22.705Z,6.72
2023-05-04T16:19:22.620Z,6.66
2023-05-04T16:22:22.626Z,6.77
2023-05-04T16:25:22.631Z,6.73
2023-05-04T16:28:22.622Z,6.69
2023-05-04T16:31:22.667Z,6.71
2023-05-04T16:34:22.630Z,6.77
2023-05-04T16:37:22.640Z,6.79
2023-05-04T16:40:22.658Z,6.74
2023-05-04T16:43:22.641Z,6.65
2023-05-04T16:46:22.699Z,6.53
2023-05-04T16:49:22.630Z,6.54
2023-05-04T16:52:22.633Z,6.56
2023-05-04T16:55:22.652Z,6.46
2023-05-04T16:58:22.653Z,6.52
2023-05-04T17:01:22.700Z,6.42
2023-05-04T17:04:22.653Z,6.4
2023-05-04T17:07:22.661Z,6.42
2023-05-04T17:10:32.656Z,6.43
2023-05-04T17:13:22.734Z,6.36
2023-05-04T17:16:22.718Z,6.39
2023-05-04T17:19:22.706Z,6.35
2023-05-04T17:22:22.709Z,6.36
2023-05-04T17:25:22.692Z,6.46
2023-05-04T17:28:22.685Z,6.36
2023-05-04T17:31:22.685Z,6.32
2023-05-04T17:34:22.674Z,6.34
2023-05-04T17:37:22.672Z,6.29
2023-05-04T17:40:22.681Z,6.24
2023-05-04T17:43:22.679Z,6.22
2023-05-04T17:46:22.707Z,6.21
2023-05-04T17:49:22.687Z,6.1
2023-05-04T17:52:22.688Z,6.12
2023-05-04T17:55:22.709Z,6.15
2023-05-04T17:58:22.697Z,6.16
2023-05-04T18:01:22.708Z,6.19
2023-05-04T18:04:22.720Z,6.2
2023-05-04T18:07:22.720Z,6.11
2023-05-04T18:10:22.743Z,6.1
2023-05-04T18:13:22.818Z,6.1
2023-05-04T18:16:22.775Z,6.06
2023-05-04T18:19:22.722Z,6.01
2023-05-04T18:22:22.738Z,5.98
2023-05-04T18:25:22.737Z,6.01
2023-05-04T18:28:22.743Z,6.02
2023-05-04T18:31:22.741Z,6.05
2023-05-04T18:34:22.745Z,6.05
2023-05-04T18:37:22.753Z,6.1
2023-05-04T18:40:22.779Z,6.1
2023-05-04T18:43:22.763Z,6.12
2023-05-04T18:46:22.848Z,6.09
2023-05-04T18:49:22.769Z,6.07
2023-05-04T18:52:22.794Z,6.07
2023-05-04T18:55:22.793Z,6.08
2023-05-04T18:58:22.789Z,6.05
2023-05-04T19:01:22.802Z,6.06
2023-05-04T19:04:22.806Z,6.06
2023-05-04T19:07:22.803Z,6.06
2023-05-04T19:10:22.813Z,6.01
2023-05-04T19:13:22.812Z,6.01
2023-05-04T19:16:22.883Z,6.05
2023-05-04T19:19:22.844Z,6.06
2023-05-04T19:22:22.849Z,6.22
2023-05-04T19:25:33.515Z,6.2
2023-05-04T19:28:22.865Z,6.17
2023-05-04T19:31:22.897Z,6.15
2023-05-04T19:34:22.874Z,6.14
2023-05-04T19:37:22.880Z,6.16
2023-05-04T19:40:22.896Z,6.15
2023-05-04T19:43:22.896Z,6.16
2023-05-04T19:46:22.932Z,6.16
2023-05-04T19:49:22.900Z,6.16
2023-05-04T19:52:22.902Z,6.19
2023-05-04T19:55:23.011Z,6.25
2023-05-04T19:58:22.912Z,6.22
2023-05-04T20:01:22.989Z,6.24
2023-05-04T20:04:22.925Z,6.31
2023-05-04T20:07:22.942Z,6.32
2023-05-04T20:10:22.959Z,6.31
2023-05-04T20:13:22.945Z,6.34
2023-05-04T20:16:22.964Z,6.37
2023-05-04T20:19:22.958Z,6.41
2023-05-04T20:22:22.971Z,6.51
2023-05-04T20:25:22.997Z,6.54
2023-05-04T20:28:22.982Z,6.6
2023-05-04T20:31:23.002Z,6.63
2023-05-04T20:34:22.993Z,6.63
2023-05-04T20:37:23.002Z,6.63
2023-05-04T20:40:23.022Z,6.66
2023-05-04T20:43:23.004Z,6.65
2023-05-04T20:46:23.076Z,6.65
2023-05-04T20:49:23.032Z,6.68
2023-05-04T20:52:23.039Z,6.7
2023-05-04T20:55:23.048Z,6.7
2023-05-04T20:58:23.042Z,6.67
2023-05-04T21:01:23.078Z,6.7
2023-05-04T21:04:23.053Z,6.71
2023-05-04T21:07:23.060Z,6.7
2023-05-04T21:10:23.072Z,6.69
2023-05-04T21:13:23.068Z,6.73
2023-05-04T21:16:23.144Z,6.74
2023-05-04T21:19:23.071Z,6.76
2023-05-04T21:22:23.086Z,6.74
2023-05-04T21:25:23.090Z,6.72
2023-05-04T21:28:23.085Z,6.75
2023-05-04T21:31:23.105Z,6.77
2023-05-04T21:34:23.091Z,6.75
2023-05-04T21:37:23.107Z,6.77
2023-05-04T21:40:23.113Z,6.8
2023-05-04T21:43:23.106Z,6.8
2023-05-04T21:46:23.187Z,6.76
2023-05-04T21:49:23.113Z,6.75
2023-05-04T21:52:23.116Z,6.76
2023-05-04T21:55:23.130Z,6.74
2023-05-04T21:58:23.126Z,6.74
2023-05-04T22:01:23.235Z,6.77
2023-05-04T22:04:23.135Z,6.73
2023-05-04T22:07:23.133Z,6.72
2023-05-04T22:10:23.143Z,6.71
2023-05-04T22:13:23.135Z,6.67
2023-05-04T22:16:23.152Z,6.66
2023-05-04T22:19:23.147Z,6.64
2023-05-04T22:22:23.153Z,6.64
2023-05-04T22:25:23.165Z,6.67
2023-05-04T22:28:23.152Z,6.63
2023-05-04T22:31:23.280Z,6.67
2023-05-04T22:34:23.157Z,6.63
2023-05-04T22:37:23.170Z,6.62
2023-05-04T22:40:23.172Z,6.62
2023-05-04T22:43:23.162Z,6.63
2023-05-04T22:46:23.183Z,6.66
2023-05-04T22:49:23.179Z,6.68
2023-05-04T22:52:23.198Z,6.69
2023-05-04T22:55:23.193Z,6.7
2023-05-04T22:58:23.184Z,6.74
2023-05-04T23:01:23.214Z,6.72
2023-05-04T23:04:23.195Z,6.68
2023-05-04T23:07:23.190Z,6.71
2023-05-04T23:10:23.233Z,6.68
2023-05-04T23:13:23.195Z,6.7
2023-05-04T23:16:23.301Z,6.69
2023-05-04T23:19:23.208Z,6.7
2023-05-04T23:22:23.214Z,6.7
2023-05-04T23:25:23.218Z,6.74
2023-05-04T23:28:23.215Z,6.74
2023-05-04T23:31:23.246Z,6.73
2023-05-04T23:34:23.230Z,6.74
2023-05-04T23:37:23.216Z,6.75
2023-05-04T23:40:23.234Z,6.71
2023-05-04T23:43:23.220Z,6.74
2023-05-04T23:46:23.230Z,6.72
2023-05-04T23:49:23.224Z,6.7
2023-05-04T23:52:23.249Z,6.75
2023-05-04T23:55:23.238Z,6.74
2023-05-04T23:58:23.226Z,6.76
